Nefryt — E5U3177 — position and weather

sailwx.info

Track history (hours):
 
Tides and Currents Weather Stations Pressure Air Temp Water Temp Dewpoint Dewpoint Depression Visibility Wind Speed Wind Dir Waves Ship Positions

Nefryt

Last reported at 2017-Dec-09 01:46 UTC. Time now 2017-Dec-12 10:23 UTC.
Position N 36°37' E 014°27'.

Length 113 m; draft 8.9 m.

Type: Cargo ship. MMSI: 518100241.

Date/timePositionNaut miles runAvg speedWind from/ knotsBaromVisibWave heightAir tempDewpointWater temp
2017-Dec-09 01:46N 36°37' E 014°27'453 9.3
2017-Dec-07 01:20N 36°54' E 023°51'510.2
2017-Dec-07 00:52N 36°58' E 023°55'410.1
2017-Dec-07 00:31N 37°01' E 023°57'510.0
2017-Dec-07 00:00N 37°05' E 024°01'1410.2
2017-Dec-06 22:40N 37°16' E 024°10'210.1
2017-Dec-06 22:30N 37°17' E 024°11'5 9.9
2017-Dec-06 21:58N 37°22' E 024°15'5 9.8
2017-Dec-06 21:31N 37°26' E 024°18'510.2
2017-Dec-06 21:00N 37°30' E 024°22'  
Track history (hours):
 
Tides and Currents Weather Stations Pressure Air Temp Water Temp Dewpoint Dewpoint Depression Visibility Wind Speed Wind Dir Waves Ship Positions

Nefryt

Last reported at 2017-Dec-09 01:46 UTC. Time now 2017-Dec-12 10:23 UTC.
Position N 36°37' E 014°27'.

Length 113 m; draft 8.9 m.

Type: Cargo ship. MMSI: 518100241.

Date/timePositionNaut miles runAvg speedWind from/ knotsBaromVisibWave heightAir tempDewpointWater temp
2017-Dec-09 01:46N 36°37' E 014°27'453 9.3
2017-Dec-07 01:20N 36°54' E 023°51'510.2
2017-Dec-07 00:52N 36°58' E 023°55'410.1
2017-Dec-07 00:31N 37°01' E 023°57'510.0
2017-Dec-07 00:00N 37°05' E 024°01'1410.2
2017-Dec-06 22:40N 37°16' E 024°10'210.1
2017-Dec-06 22:30N 37°17' E 024°11'5 9.9
2017-Dec-06 21:58N 37°22' E 024°15'5 9.8
2017-Dec-06 21:31N 37°26' E 024°18'510.2
2017-Dec-06 21:00N 37°30' E 024°22'  

Dump ship's entire track history